Time;durP1;ratioP1;P1;durP2;ratioP2;P2;SDS_P1;SDS_P2;PMS_P1;PMS_P2;Temp;Humidity;BMP_temperature;BMP_pressure;BME280_temperature;BME280_humidity;BME280_pressure;Samples;Min_cycle;Max_cycle;Signal;HPM_P1;HPM_P2
2021/03/26 00:01:51;;;;;;;39.40;19.77;;;10.20;99.90;;;;;;6163758;23;20025;-88
2021/03/26 00:04:20;;;;;;;40.10;19.73;;;10.00;99.90;;;;;;6159878;23;20025;-88
2021/03/26 00:06:52;;;;;;;46.90;20.75;;;9.90;99.90;;;;;;6183383;23;20021;-87
2021/03/26 00:09:22;;;;;;;40.60;18.80;;;9.90;99.90;;;;;;6158337;23;20181;-90
2021/03/26 00:11:52;;;;;;;46.33;20.65;;;9.80;99.90;;;;;;6158152;23;20022;-87
2021/03/26 00:14:19;;;;;;;;;;;9.80;99.90;;;;;;6158551;23;20018;-88
2021/03/26 00:16:49;;;;;;;44.13;19.05;;;9.70;99.90;;;;;;6135023;23;19916;-88
2021/03/26 00:19:18;;;;;;;45.40;19.75;;;9.70;99.90;;;;;;6159565;23;20021;-86
2021/03/26 00:21:46;;;;;;;44.88;19.90;;;9.70;99.90;;;;;;6159315;23;20329;-87
2021/03/26 00:24:13;;;;;;;46.58;20.20;;;9.80;99.90;;;;;;6159493;23;20048;-87
2021/03/26 00:26:41;;;;;;;45.70;22.25;;;9.70;99.90;;;;;;6137627;23;20013;-88
2021/03/26 00:29:11;;;;;;;44.58;21.25;;;9.70;99.90;;;;;;6185813;23;20074;-87
2021/03/26 00:31:40;;;;;;;50.38;23.73;;;9.70;99.90;;;;;;6155674;23;20008;-94
2021/03/26 00:34:09;;;;;;;;;;;9.70;99.90;;;;;;6184619;23;20060;-93
2021/03/26 00:36:37;;;;;;;51.60;21.70;;;9.70;99.90;;;;;;6174532;23;20228;-85
2021/03/26 00:39:06;;;;;;;55.38;22.77;;;9.90;99.90;;;;;;6182218;23;20009;-86
2021/03/26 04:40:43;;;;;;;55.95;22.33;;;7.70;99.90;;;;;;6185576;23;20081;-85
2021/03/26 04:43:24;;;;;;;56.67;22.58;;;7.60;99.90;;;;;;6162345;23;20020;-81
2021/03/26 04:55:12;;;;;;;60.20;22.90;;;7.40;99.90;;;;;;6190765;23;20032;31
2021/03/26 05:10:35;;;;;;;60.25;23.00;;;7.30;99.90;;;;;;6178279;22;20028;-82
2021/03/26 05:13:16;;;;;;;58.25;21.58;;;7.30;99.90;;;;;;6107605;23;20028;-83
2021/03/26 05:15:54;;;;;;;50.63;21.13;;;7.20;99.90;;;;;;6156132;23;20012;-83
2021/03/26 05:18:38;;;;;;;54.75;22.23;;;7.30;99.90;;;;;;6156734;23;20020;-84
2021/03/26 05:21:20;;;;;;;56.60;21.42;;;7.50;99.90;;;;;;6168322;23;20027;-83
2021/03/26 05:23:56;;;;;;;55.53;22.35;;;7.50;99.90;;;;;;6157444;23;20077;-84
2021/03/26 05:27:00;;;;;;;56.90;22.17;;;7.60;99.90;;;;;;6182189;23;20081;-84
2021/03/26 05:29:38;;;;;;;55.05;21.88;;;7.70;99.90;;;;;;6133061;23;20069;-83
2021/03/26 05:32:18;;;;;;;50.83;20.92;;;7.70;99.90;;;;;;6131357;23;20021;-85
2021/03/26 05:35:31;;;;;;;46.53;18.95;;;7.60;99.90;;;;;;6068794;23;20086;-84
2021/03/26 06:18:20;;;;;;;40.85;17.40;;;7.80;99.90;;;;;;6183564;23;20024;31
2021/03/26 07:14:55;;;;;;;42.10;17.67;;;8.50;99.90;;;;;;6239047;22;20024;-86
2021/03/26 07:55:53;;;;;;;40.78;18.42;;;9.90;99.90;;;;;;6246592;22;20017;-85
2021/03/26 08:01:30;;;;;;;37.15;17.25;;;10.00;99.90;;;;;;6244382;22;19964;-84
2021/03/26 08:12:57;;;;;;;39.00;18.02;;;9.90;99.90;;;;;;6239752;22;20208;-83
2021/03/26 08:21:57;;;;;;;37.28;16.80;;;10.10;99.90;;;;;;6234476;22;20020;31
2021/03/26 08:27:45;;;;;;;33.75;15.30;;;10.40;99.90;;;;;;6214828;22;20020;31
2021/03/26 08:45:34;;;;;;;46.05;20.35;;;11.00;99.90;;;;;;6244396;22;20088;-83
2021/03/26 09:09:11;;;;;;;47.50;23.20;;;12.40;99.90;;;;;;6235051;22;20031;-84
2021/03/26 09:50:32;;;;;;;63.75;27.08;;;13.50;99.90;;;;;;6225991;22;19916;-92
2021/03/26 09:53:00;;;;;;;57.03;24.95;;;14.20;98.30;;;;;;6178420;23;20430;-90
2021/03/26 10:01:13;;;;;;;63.45;28.48;;;15.00;94.30;;;;;;6225850;22;20438;-89
2021/03/26 10:03:56;;;;;;;58.88;28.63;;;15.50;91.80;;;;;;6198663;23;20035;-91
2021/03/26 10:26:44;;;;;;;69.43;31.92;;;15.30;89.30;;;;;;6180603;22;20837;-84
2021/03/26 10:44:37;;;;;;;72.70;32.08;;;15.80;89.90;;;;;;6218054;22;20032;-90
2021/03/26 10:47:23;;;;;;;58.38;30.88;;;17.20;80.90;;;;;;6167328;23;20020;-90
2021/03/26 10:50:00;;;;;;;59.75;32.72;;;17.90;76.10;;;;;;6166327;23;20031;-88
2021/03/26 10:52:39;;;;;;;60.17;32.90;;;18.40;72.30;;;;;;6166653;23;20031;-89
2021/03/26 10:55:14;;;;;;;65.15;31.80;;;18.60;69.40;;;;;;6167062;23;20017;-88
2021/03/26 11:03:34;;;;;;;69.57;33.47;;;16.30;76.90;;;;;;6231618;22;20007;-84
2021/03/26 11:09:05;;;;;;;62.38;32.05;;;15.30;82.30;;;;;;6212998;22;20023;-87
2021/03/26 11:11:50;;;;;;;66.72;32.35;;;16.10;80.10;;;;;;6170040;23;20040;-91
2021/03/26 11:14:43;;;;;;;64.80;32.22;;;16.90;76.80;;;;;;6167673;23;20020;-89
2021/03/26 11:23:26;;;;;;;62.40;31.85;;;16.50;74.70;;;;;;6221988;22;20019;-86
2021/03/26 11:26:15;;;;;;;58.97;31.38;;;17.40;73.40;;;;;;6177713;23;20031;-91
2021/03/26 11:28:58;;;;;;;62.42;31.60;;;18.30;69.60;;;;;;6178823;22;20016;-87
2021/03/26 11:31:30;;;;;;;59.58;31.85;;;18.30;68.20;;;;;;6166677;23;20031;-87
2021/03/26 11:34:08;;;;;;;65.13;31.80;;;19.40;64.40;;;;;;6172738;22;20013;-84
2021/03/26 11:39:44;;;;;;;57.75;30.80;;;17.10;69.90;;;;;;6216216;22;20028;-84
2021/03/26 11:42:35;;;;;;;56.03;30.35;;;17.80;69.20;;;;;;6186272;23;20008;-90
2021/03/26 11:45:29;;;;;;;55.80;30.67;;;18.20;67.80;;;;;;6187382;23;20200;-89
2021/03/26 11:48:08;;;;;;;60.45;30.80;;;18.50;66.80;;;;;;6232905;23;20024;-92
2021/03/26 11:51:33;;;;;;;58.35;30.08;;;18.80;65.80;;;;;;6181090;23;20035;-85
2021/03/26 11:54:09;;;;;;;55.67;29.35;;;18.20;65.80;;;;;;6168780;23;20021;-90
2021/03/26 11:56:58;;;;;;;54.88;30.20;;;19.20;63.40;;;;;;6144426;23;20020;-88
2021/03/26 12:05:56;;;;;;;54.70;30.48;;;17.10;67.70;;;;;;6220390;22;20254;-87
2021/03/26 12:08:30;;;;;;;55.95;30.77;;;16.80;70.50;;;;;;6187608;23;20008;-89
2021/03/26 12:11:13;;;;;;;61.75;32.08;;;16.60;71.40;;;;;;6170433;23;20035;-91
2021/03/26 12:13:54;;;;;;;59.10;30.20;;;17.50;69.20;;;;;;6168655;23;20334;-88
2021/03/26 12:16:28;;;;;;;55.40;30.23;;;19.10;64.10;;;;;;6169289;23;20016;-88
2021/03/26 12:19:05;;;;;;;51.85;31.70;;;20.70;58.80;;;;;;6193159;23;20443;-89
2021/03/26 12:21:49;;;;;;;58.60;32.78;;;20.80;56.20;;;;;;6193127;23;20031;-93
2021/03/26 12:24:24;;;;;;;65.25;34.10;;;19.90;57.60;;;;;;6168139;23;20032;-91
2021/03/26 12:27:03;;;;;;;56.55;32.28;;;19.40;58.50;;;;;;6181827;23;20001;-90
2021/03/26 12:29:42;;;;;;;59.45;32.00;;;18.20;62.30;;;;;;6168264;23;20323;-90
2021/03/26 12:32:21;;;;;;;61.50;33.28;;;18.90;60.00;;;;;;6169646;23;20024;-91
2021/03/26 12:35:13;;;;;;;58.97;33.47;;;19.20;59.40;;;;;;6168284;23;20016;-90
2021/03/26 12:37:49;;;;;;;60.97;32.67;;;19.90;57.60;;;;;;6169698;23;20071;-91
2021/03/26 12:40:44;;;;;;;58.13;34.95;;;20.00;56.00;;;;;;6196018;23;20017;-88
2021/03/26 12:43:18;;;;;;;60.63;33.70;;;20.20;55.00;;;;;;6168735;23;20039;-89
2021/03/26 12:45:58;;;;;;;59.97;33.45;;;20.30;54.60;;;;;;6168487;23;20040;-87
2021/03/26 12:48:35;;;;;;;65.82;32.10;;;20.30;54.80;;;;;;6168358;23;20017;-89
2021/03/26 12:51:13;;;;;;;57.42;31.67;;;21.40;51.90;;;;;;6145207;23;20266;-93
2021/03/26 12:53:50;;;;;;;51.90;28.55;;;20.10;53.50;;;;;;6202376;23;20083;-89
2021/03/26 12:56:26;;;;;;;53.35;29.77;;;19.20;55.50;;;;;;6191491;23;20016;-88
2021/03/26 12:59:15;;;;;;;54.00;28.08;;;19.10;56.20;;;;;;6170421;23;20032;-93
2021/03/26 13:01:53;;;;;;;59.50;29.58;;;19.80;54.30;;;;;;6168812;23;20412;-90
2021/03/26 13:04:39;;;;;;;46.65;25.73;;;21.20;51.20;;;;;;6194513;23;20021;-88
2021/03/26 13:07:28;;;;;;;56.70;29.35;;;22.30;49.10;;;;;;6194882;23;20021;-90
2021/03/26 13:10:02;;;;;;;43.95;26.75;;;23.40;47.20;;;;;;6169500;23;20364;-89
2021/03/26 13:12:34;;;;;;;41.90;27.10;;;24.30;44.30;;;;;;6168688;23;20020;-90
2021/03/26 13:15:15;;;;;;;48.72;26.98;;;24.00;43.30;;;;;;6193415;23;20084;-86
2021/03/26 13:17:44;;;;;;;43.88;24.85;;;24.00;43.70;;;;;;6169955;23;20420;-93
2021/03/26 13:20:14;;;;;;;44.97;25.90;;;22.90;43.60;;;;;;6169779;23;20017;-94
2021/03/26 13:22:46;;;;;;;38.13;22.48;;;22.20;46.10;;;;;;6170710;23;20016;-90
2021/03/26 13:25:23;;;;;;;47.97;27.15;;;23.60;43.20;;;;;;6195812;23;20032;-90
2021/03/26 13:28:18;;;;;;;46.35;26.70;;;24.30;42.70;;;;;;6173101;23;20020;-93
2021/03/26 13:31:01;;;;;;;46.75;27.10;;;23.10;44.50;;;;;;6199610;23;20026;-89
2021/03/26 13:33:52;;;;;;;48.22;25.30;;;24.30;42.80;;;;;;6176381;23;20024;-91
2021/03/26 13:36:28;;;;;;;42.03;26.33;;;23.50;42.70;;;;;;6177078;23;20036;-92
2021/03/26 13:39:20;;;;;;;44.50;26.38;;;22.70;44.50;;;;;;6178564;23;20016;-92
2021/03/26 13:42:00;;;;;;;38.30;21.92;;;24.00;42.90;;;;;;6177549;23;20024;-87
2021/03/26 13:45:01;;;;;;;36.28;21.10;;;25.60;39.80;;;;;;6174990;23;20031;-87
2021/03/26 13:47:37;;;;;;;;;;;26.10;37.90;;;;;;6178965;23;20020;-88
2021/03/26 13:50:21;;;;;;;39.25;23.30;;;26.10;37.90;;;;;;6177423;23;19916;-90
2021/03/26 13:53:04;;;;;;;38.25;22.17;;;25.00;38.30;;;;;;6179456;23;20021;-95
2021/03/26 13:55:36;;;;;;;38.92;21.70;;;23.10;41.40;;;;;;6179250;23;20025;-94
2021/03/26 13:58:15;;;;;;;38.70;22.10;;;22.70;42.20;;;;;;6180567;23;20044;-94
2021/03/26 14:00:48;;;;;;;38.38;21.88;;;22.10;42.60;;;;;;6200029;23;20030;-95
2021/03/26 14:03:24;;;;;;;39.05;22.88;;;21.40;44.30;;;;;;6170644;23;20016;-94
2021/03/26 14:06:05;;;;;;;39.20;21.25;;;20.90;44.80;;;;;;6170801;23;20332;-93
2021/03/26 14:08:39;;;;;;;41.28;22.48;;;21.10;44.80;;;;;;6193264;23;20431;-91
2021/03/26 14:11:17;;;;;;;45.75;24.15;;;21.20;45.70;;;;;;6167561;23;20020;-93
2021/03/26 14:13:58;;;;;;;41.80;22.88;;;20.80;45.50;;;;;;6169239;23;20020;-92
2021/03/26 14:16:36;;;;;;;41.25;22.05;;;20.80;45.60;;;;;;6169031;23;20021;-90
2021/03/26 14:19:10;;;;;;;42.47;23.92;;;21.40;45.50;;;;;;6167815;23;20017;-92
2021/03/26 14:21:44;;;;;;;41.95;23.33;;;21.20;45.40;;;;;;6168274;23;20020;-92
2021/03/26 14:24:28;;;;;;;42.50;23.70;;;20.70;46.20;;;;;;6176614;23;20009;-90
2021/03/26 14:27:12;;;;;;;42.45;22.35;;;20.50;46.60;;;;;;6188583;23;20027;-89
2021/03/26 14:29:52;;;;;;;43.88;23.40;;;21.70;45.00;;;;;;6193374;23;20035;-87
2021/03/26 14:32:25;;;;;;;37.13;20.77;;;23.40;42.30;;;;;;6192703;23;20470;-86
2021/03/26 14:34:58;;;;;;;41.70;22.15;;;24.10;40.00;;;;;;6191248;23;20046;-92
2021/03/26 14:37:29;;;;;;;35.90;20.40;;;21.30;43.60;;;;;;6168267;23;20305;-92
2021/03/26 14:40:15;;;;;;;37.17;20.80;;;20.60;45.90;;;;;;6166924;23;20013;-88
2021/03/26 14:42:46;;;;;;;40.20;21.02;;;20.90;45.60;;;;;;6190589;23;20024;-86
2021/03/26 14:45:25;;;;;;;41.72;22.95;;;21.60;44.60;;;;;;6167056;23;20017;-90
2021/03/26 14:48:08;;;;;;;38.08;21.15;;;21.50;44.50;;;;;;6166829;23;20035;-92
2021/03/26 14:50:40;;;;;;;39.95;21.55;;;20.30;45.60;;;;;;6168416;23;20020;-92
2021/03/26 14:53:16;;;;;;;36.65;20.88;;;19.80;47.70;;;;;;6167911;23;20027;-92
2021/03/26 14:55:50;;;;;;;37.17;21.02;;;19.50;47.90;;;;;;6167242;23;20021;-91
2021/03/26 14:58:29;;;;;;;41.55;20.55;;;19.60;47.50;;;;;;6144713;23;20021;-84
2021/03/26 15:01:07;;;;;;;38.42;20.92;;;18.80;48.70;;;;;;6213440;23;20045;-87
2021/03/26 15:03:54;;;;;;;39.65;20.23;;;17.90;51.20;;;;;;6171308;23;20023;-90
2021/03/26 15:06:33;;;;;;;35.60;20.45;;;17.60;51.70;;;;;;6193247;23;20023;-92
2021/03/26 15:09:08;;;;;;;38.60;21.10;;;17.60;52.30;;;;;;6168805;23;20016;-91
2021/03/26 15:12:20;;;;;;;40.45;21.55;;;17.80;51.20;;;;;;6170335;23;20016;-92
2021/03/26 15:15:32;;;;;;;44.72;21.23;;;17.80;51.70;;;;;;6180317;23;20020;-89
2021/03/26 15:18:31;;;;;;;32.97;20.00;;;18.00;51.40;;;;;;6053559;23;20026;-90
2021/03/26 15:21:02;;;;;;;41.30;21.23;;;18.00;51.30;;;;;;6051957;23;20028;-92
2021/03/26 15:23:44;;;;;;;40.15;19.83;;;17.80;51.90;;;;;;6181954;23;20020;-89
2021/03/26 15:26:24;;;;;;;33.30;19.10;;;17.30;52.50;;;;;;6241207;23;20056;-90
2021/03/26 15:28:55;;;;;;;40.83;21.45;;;17.20;53.90;;;;;;6208515;23;20021;-91
2021/03/26 15:31:33;;;;;;;42.95;20.70;;;17.30;53.30;;;;;;6176205;23;20037;-89
2021/03/26 15:34:15;;;;;;;38.25;20.83;;;17.40;53.10;;;;;;6175861;23;20428;-91
2021/03/26 15:36:50;;;;;;;42.15;21.48;;;17.50;52.90;;;;;;6177985;23;20025;-92
2021/03/26 15:39:31;;;;;;;36.53;20.83;;;17.40;52.90;;;;;;6178493;23;20016;-91
2021/03/26 15:42:14;;;;;;;37.83;20.67;;;17.50;52.60;;;;;;6181063;23;20016;-91
2021/03/26 15:44:53;;;;;;;38.38;20.08;;;18.00;52.40;;;;;;6156173;23;20031;-88
2021/03/26 15:47:27;;;;;;;40.72;20.20;;;18.90;49.80;;;;;;6204448;23;20020;-92
2021/03/26 15:50:06;;;;;;;34.70;19.60;;;19.30;49.10;;;;;;6205511;23;20035;-89
2021/03/26 15:52:53;;;;;;;37.70;20.30;;;19.80;48.10;;;;;;6171894;23;20020;-88
2021/03/26 15:55:40;;;;;;;31.25;18.00;;;20.30;47.30;;;;;;6171584;23;20020;-88
2021/03/26 15:58:41;;;;;;;33.35;19.48;;;20.20;47.30;;;;;;6142543;23;20041;-88
2021/03/26 16:01:29;;;;;;;34.63;19.88;;;20.00;48.30;;;;;;6189518;23;20028;-88
2021/03/26 16:04:11;;;;;;;39.80;22.00;;;19.60;49.60;;;;;;6190414;23;20021;-87
2021/03/26 16:06:52;;;;;;;45.88;23.58;;;19.20;50.50;;;;;;6165653;23;20017;-88
2021/03/26 16:09:48;;;;;;;43.58;22.38;;;18.90;51.30;;;;;;6214021;23;20020;-89
2021/03/26 16:13:11;;;;;;;42.13;23.35;;;18.70;51.70;;;;;;6187018;23;20017;-88
2021/03/26 16:16:03;;;;;;;36.22;20.13;;;18.70;51.80;;;;;;6165657;23;20126;-89
2021/03/26 16:19:11;;;;;;;44.25;21.40;;;18.80;51.70;;;;;;6166409;23;20031;-88
2021/03/26 16:21:55;;;;;;;42.40;23.10;;;18.70;52.00;;;;;;6164666;23;20017;-88
2021/03/26 16:24:48;;;;;;;46.10;23.80;;;18.60;51.80;;;;;;6165751;23;20321;-88
2021/03/26 16:27:48;;;;;;;46.97;20.92;;;18.40;52.30;;;;;;6140873;23;20031;-89
2021/03/26 16:30:34;;;;;;;49.60;23.10;;;18.20;52.90;;;;;;6164439;23;20028;-87
2021/03/26 16:33:33;;;;;;;41.30;24.20;;;18.00;54.00;;;;;;6162626;23;20020;-86
2021/03/26 16:36:40;;;;;;;41.17;23.42;;;17.80;55.00;;;;;;6188697;23;20021;-88
2021/03/26 16:39:50;;;;;;;39.05;23.10;;;17.50;55.70;;;;;;6188681;23;20017;-88
2021/03/26 16:42:48;;;;;;;47.67;24.07;;;17.30;56.40;;;;;;6160197;23;20501;-87
2021/03/26 16:45:52;;;;;;;46.78;24.30;;;17.10;57.10;;;;;;6164319;23;20252;-87
2021/03/26 16:49:02;;;;;;;42.60;24.30;;;16.90;57.90;;;;;;6047734;23;20105;-89
2021/03/26 16:52:05;;;;;;;47.72;26.10;;;16.60;58.50;;;;;;6082997;23;20036;-90
2021/03/26 16:54:40;;;;;;;41.13;23.73;;;16.50;58.90;;;;;;6104202;23;20342;-89
2021/03/26 16:57:46;;;;;;;45.67;23.75;;;16.20;59.50;;;;;;6080357;23;20026;-89
2021/03/26 17:00:53;;;;;;;48.28;24.77;;;16.00;60.10;;;;;;6106145;23;20033;-88
2021/03/26 17:03:58;;;;;;;61.28;27.50;;;15.90;61.10;;;;;;6079799;23;20028;-91
2021/03/26 17:06:53;;;;;;;47.55;26.60;;;15.70;62.30;;;;;;6131239;23;20022;-92
2021/03/26 17:10:16;;;;;;;52.75;25.42;;;15.50;63.00;;;;;;6109929;23;20334;-90
2021/03/26 17:13:25;;;;;;;47.45;26.48;;;15.30;64.00;;;;;;6079896;23;20022;-89
2021/03/26 17:16:25;;;;;;;47.00;26.52;;;15.10;65.10;;;;;;6065780;23;20021;-90
2021/03/26 17:19:31;;;;;;;60.25;29.92;;;14.90;66.10;;;;;;6094492;23;20091;-90
2021/03/26 17:22:45;;;;;;;45.70;26.38;;;14.70;66.80;;;;;;6105343;23;20022;-90
2021/03/26 17:25:43;;;;;;;47.40;26.13;;;14.50;67.80;;;;;;6103681;23;20018;-90
2021/03/26 17:28:45;;;;;;;47.08;26.90;;;14.30;68.50;;;;;;6097046;23;20021;-89
2021/03/26 17:31:59;;;;;;;49.38;27.58;;;14.20;69.70;;;;;;6151577;23;20017;-86
2021/03/26 17:34:43;;;;;;;52.45;26.52;;;14.00;70.20;;;;;;6032635;23;20332;-89
2021/03/26 17:37:46;;;;;;;51.47;26.75;;;13.90;71.20;;;;;;6072512;23;20026;-89
2021/03/26 17:40:54;;;;;;;52.67;26.88;;;13.70;72.00;;;;;;6045650;23;20351;-89
2021/03/26 17:43:40;;;;;;;51.78;27.17;;;13.60;73.40;;;;;;6046742;23;20022;-89
2021/03/26 17:46:36;;;;;;;54.53;27.02;;;13.50;73.80;;;;;;6023103;23;20028;-91
2021/03/26 17:49:22;;;;;;;49.63;27.58;;;13.40;74.90;;;;;;6026386;23;20022;-88
2021/03/26 17:52:29;;;;;;;58.70;27.95;;;13.40;75.80;;;;;;6046189;23;20027;-89
2021/03/26 17:55:37;;;;;;;51.38;26.42;;;13.30;76.70;;;;;;6022049;23;20018;-91
2021/03/26 17:58:31;;;;;;;66.20;29.67;;;13.30;77.70;;;;;;5996448;23;20050;-90
2021/03/26 18:01:01;;;;;;;51.95;28.65;;;13.20;78.60;;;;;;6024479;23;20481;-91
2021/03/26 18:04:03;;;;;;;53.30;27.73;;;13.10;79.60;;;;;;6046252;23;20114;-91
2021/03/26 18:06:53;;;;;;;57.92;29.70;;;13.00;80.60;;;;;;6046912;23;20033;-89
2021/03/26 18:09:44;;;;;;;51.05;27.55;;;13.00;81.00;;;;;;6045980;23;20026;-90
2021/03/26 18:12:18;;;;;;;54.83;28.48;;;13.00;82.00;;;;;;6131799;23;20021;-90
2021/03/26 18:14:58;;;;;;;58.97;29.63;;;13.00;82.90;;;;;;6135960;23;20021;-90
2021/03/26 18:17:50;;;;;;;51.70;28.42;;;12.90;83.60;;;;;;6135683;23;20022;-91
2021/03/26 18:20:26;;;;;;;64.90;29.88;;;12.80;84.60;;;;;;6137893;23;20017;-89
2021/03/26 18:23:14;;;;;;;58.72;31.27;;;12.80;85.70;;;;;;6138554;23;20027;-92
2021/03/26 18:26:12;;;;;;;50.83;27.17;;;12.80;86.30;;;;;;6138827;23;20021;-90
2021/03/26 18:29:13;;;;;;;50.40;28.13;;;12.70;86.90;;;;;;6139933;23;20036;-91
2021/03/26 18:32:17;;;;;;;54.85;29.90;;;12.60;87.80;;;;;;6136450;23;20031;-92
2021/03/26 18:34:55;;;;;;;53.58;28.35;;;12.60;89.10;;;;;;6139006;23;20031;-91
2021/03/26 18:38:01;;;;;;;55.70;31.27;;;12.50;90.10;;;;;;6141811;23;20047;-89
2021/03/26 18:40:42;;;;;;;51.92;30.20;;;12.40;90.50;;;;;;6170917;23;20021;-89
2021/03/26 18:43:48;;;;;;;60.03;30.02;;;12.40;91.20;;;;;;6138051;23;20027;-92
2021/03/26 18:46:39;;;;;;;55.30;30.90;;;12.30;91.50;;;;;;6162966;23;20021;-93
2021/03/26 18:49:28;;;;;;;46.22;27.63;;;12.30;92.20;;;;;;6163099;23;20017;-92
2021/03/26 18:52:04;;;;;;;60.35;29.50;;;12.30;92.50;;;;;;6161135;23;20022;-91
2021/03/26 18:55:10;;;;;;;50.63;29.30;;;12.20;93.00;;;;;;6133431;23;20434;-92
2021/03/26 18:57:53;;;;;;;54.13;30.52;;;12.10;93.40;;;;;;6134668;23;20032;-93
2021/03/26 19:00:41;;;;;;;47.10;27.10;;;12.10;93.50;;;;;;6135091;23;20022;-91
2021/03/26 19:03:34;;;;;;;56.30;28.90;;;12.20;92.60;;;;;;6161196;23;20025;-93
2021/03/26 19:06:23;;;;;;;49.88;28.85;;;12.30;92.20;;;;;;6161416;23;20025;-91
2021/03/26 19:09:21;;;;;;;55.13;25.55;;;12.30;92.60;;;;;;6167956;23;20080;-90
2021/03/26 19:12:01;;;;;;;49.65;26.58;;;12.10;92.90;;;;;;6161575;23;20017;-93
2021/03/26 19:19:19;;;;;;;48.10;26.65;;;11.90;93.50;;;;;;6083483;23;20331;-92
2021/03/26 19:22:19;;;;;;;54.47;26.25;;;11.80;94.20;;;;;;6135611;23;20018;-91
2021/03/26 19:25:17;;;;;;;49.53;26.38;;;11.70;94.60;;;;;;6160108;23;20017;-92
2021/03/26 19:28:17;;;;;;;48.70;25.80;;;11.60;94.80;;;;;;6156375;23;20022;-92
2021/03/26 19:31:15;;;;;;;53.35;24.77;;;11.60;95.20;;;;;;6161408;23;20021;-92
2021/03/26 19:33:53;;;;;;;48.08;24.65;;;11.50;95.40;;;;;;6081674;23;20024;-91
2021/03/26 19:36:34;;;;;;;41.55;23.58;;;11.50;95.60;;;;;;6136642;23;20058;-92
2021/03/26 19:39:21;;;;;;;59.28;23.73;;;11.40;95.10;;;;;;6136871;23;20325;-92
2021/03/26 19:42:05;;;;;;;42.53;21.42;;;11.40;95.10;;;;;;6114672;23;20072;-92
2021/03/26 19:44:52;;;;;;;40.00;18.90;;;11.40;93.60;;;;;;6136398;23;20021;-92
2021/03/26 19:47:35;;;;;;;34.33;18.73;;;11.50;91.70;;;;;;6140074;23;20021;-90
2021/03/26 19:50:29;;;;;;;31.33;16.55;;;11.60;91.90;;;;;;6138109;23;20028;-89
2021/03/26 19:53:46;;;;;;;36.08;17.85;;;11.70;90.10;;;;;;6139242;23;20021;-90
2021/03/26 20:00:48;;;;;;;24.33;12.80;;;11.90;86.20;;;;;;6146866;23;20425;-90
2021/03/26 20:03:39;;;;;;;23.67;12.85;;;11.90;84.50;;;;;;6067957;23;20041;-91
2021/03/26 20:06:32;;;;;;;24.33;11.82;;;12.00;83.60;;;;;;6137398;23;20021;-92
2021/03/26 20:09:17;;;;;;;22.15;11.43;;;12.00;83.30;;;;;;6162239;23;20032;-92
2021/03/26 20:12:05;;;;;;;23.10;11.63;;;12.00;82.60;;;;;;6137115;23;20014;-92
2021/03/26 20:14:54;;;;;;;22.02;10.40;;;11.80;83.00;;;;;;6160622;23;20036;-92
2021/03/26 20:17:28;;;;;;;18.60;10.27;;;11.90;81.90;;;;;;6114631;23;20021;-91
2021/03/26 20:20:18;;;;;;;20.25;10.15;;;12.10;81.10;;;;;;6161256;23;20022;-91
2021/03/26 20:22:55;;;;;;;19.05;9.60;;;12.10;80.40;;;;;;6140281;23;20021;-92
2021/03/26 20:25:49;;;;;;;21.50;9.30;;;12.30;79.70;;;;;;6140265;23;20021;-92
2021/03/26 20:28:30;;;;;;;14.57;9.38;;;12.30;78.80;;;;;;6144458;23;20028;-88
2021/03/26 20:31:26;;;;;;;21.05;8.60;;;12.30;78.40;;;;;;6140591;23;20291;-90
2021/03/26 20:34:25;;;;;;;18.10;8.88;;;12.30;78.20;;;;;;6176366;23;20032;-90
2021/03/26 20:37:21;;;;;;;15.43;8.13;;;12.50;77.30;;;;;;6181395;23;20069;-92
2021/03/26 20:51:31;;;;;;;21.25;8.43;;;12.30;76.50;;;;;;6053580;23;20018;-90
2021/03/26 20:54:18;;;;;;;14.55;7.13;;;12.30;76.80;;;;;;6080338;23;20018;-91
2021/03/26 20:57:04;;;;;;;13.07;7.60;;;12.30;76.20;;;;;;6089997;23;20040;-90
2021/03/26 20:59:41;;;;;;;13.73;6.70;;;12.20;76.20;;;;;;6132410;23;20032;-90
2021/03/26 21:02:19;;;;;;;13.45;7.10;;;12.10;76.30;;;;;;6083492;23;20014;-89
2021/03/26 21:04:53;;;;;;;14.25;6.72;;;12.00;76.80;;;;;;6131245;23;20071;-91
2021/03/26 21:07:28;;;;;;;13.13;6.60;;;12.00;77.00;;;;;;6085093;23;20032;-90
2021/03/26 21:10:02;;;;;;;14.68;6.47;;;12.30;75.50;;;;;;6084207;23;20021;-90
2021/03/26 21:12:44;;;;;;;13.32;6.82;;;12.30;74.90;;;;;;6085029;23;20021;-88
2021/03/26 21:15:18;;;;;;;12.40;7.10;;;12.40;74.10;;;;;;6089058;23;20025;-89
2021/03/26 21:17:57;;;;;;;12.45;6.65;;;12.50;74.00;;;;;;6109642;23;20022;-89
2021/03/26 21:20:34;;;;;;;13.27;6.63;;;12.50;73.70;;;;;;6134034;23;20030;-91
2021/03/26 21:23:13;;;;;;;10.88;5.85;;;12.40;73.90;;;;;;6084246;23;20022;-91
2021/03/26 21:25:50;;;;;;;14.23;7.93;;;12.30;74.10;;;;;;6131310;23;20059;-92
2021/03/26 21:28:38;;;;;;;12.07;6.53;;;12.10;74.60;;;;;;6111044;23;20240;-92
2021/03/26 21:31:28;;;;;;;14.00;7.00;;;12.10;75.10;;;;;;6093993;23;20436;-91
2021/03/26 21:34:30;;;;;;;14.93;7.03;;;12.10;75.00;;;;;;6094691;23;20026;-92
2021/03/26 21:37:24;;;;;;;11.82;6.50;;;11.90;75.40;;;;;;6130225;23;20002;-91
2021/03/26 21:40:08;;;;;;;13.98;7.47;;;11.80;75.70;;;;;;6176011;23;20020;-88
2021/03/26 21:42:48;;;;;;;15.52;7.53;;;11.80;75.70;;;;;;6180418;23;20028;-92
2021/03/26 21:45:25;;;;;;;14.80;7.70;;;11.70;76.30;;;;;;6156486;23;20073;-92
2021/03/26 21:48:01;;;;;;;13.10;7.65;;;11.60;77.00;;;;;;6158077;23;20056;-90
2021/03/26 21:50:38;;;;;;;15.63;8.05;;;11.50;77.00;;;;;;6182547;23;20013;-91
2021/03/26 21:53:27;;;;;;;14.55;7.53;;;11.40;77.60;;;;;;6181648;23;20053;-92
2021/03/26 21:56:30;;;;;;;13.95;7.47;;;11.60;76.90;;;;;;6147163;23;20127;-92
2021/03/26 21:59:05;;;;;;;14.05;7.25;;;11.60;76.80;;;;;;6153332;23;20021;-91
2021/03/26 22:01:43;;;;;;;12.07;7.07;;;11.80;76.30;;;;;;6113837;23;20316;-91
2021/03/26 22:04:16;;;;;;;14.38;7.00;;;11.70;76.60;;;;;;6146171;23;20036;-91
2021/03/26 22:06:53;;;;;;;14.07;7.30;;;11.90;76.20;;;;;;6141505;23;20313;-89
2021/03/26 22:09:39;;;;;;;13.25;7.03;;;12.00;75.90;;;;;;6166879;23;20048;-89
2021/03/26 22:12:27;;;;;;;17.20;7.30;;;12.00;75.80;;;;;;6138318;23;20028;-90
2021/03/26 22:15:10;;;;;;;17.92;7.47;;;11.90;76.10;;;;;;6141359;23;20017;-89
2021/03/26 22:17:42;;;;;;;13.18;7.35;;;11.90;76.10;;;;;;6141483;23;20028;-89
2021/03/26 22:20:21;;;;;;;15.00;8.15;;;11.80;76.40;;;;;;6138637;23;20021;-91
2021/03/26 22:22:49;;;;;;;;;;;11.90;76.50;;;;;;6138135;23;20029;-89
2021/03/26 22:25:29;;;;;;;16.13;8.00;;;11.80;76.60;;;;;;6138768;23;19927;-88
2021/03/26 22:28:23;;;;;;;14.30;7.47;;;11.90;76.60;;;;;;6140068;23;20021;-88
2021/03/26 22:31:00;;;;;;;14.48;7.18;;;11.80;76.90;;;;;;6138553;23;20043;-88
2021/03/26 22:33:40;;;;;;;12.90;6.80;;;11.70;77.30;;;;;;6136395;23;20021;-92
2021/03/26 22:36:21;;;;;;;16.35;7.65;;;11.60;77.30;;;;;;6159887;23;20018;-91
2021/03/26 22:39:02;;;;;;;15.75;7.88;;;11.60;77.80;;;;;;6158826;23;20036;-92
2021/03/26 22:41:56;;;;;;;15.43;7.35;;;11.60;78.20;;;;;;6159113;23;20024;-90
2021/03/26 22:44:35;;;;;;;13.25;7.65;;;11.70;78.70;;;;;;6161320;23;20354;-90
2021/03/26 22:56:20;;;;;;;16.65;8.50;;;11.80;78.30;;;;;;6214144;22;20378;-81
2021/03/26 23:57:50;;;;;;;18.35;10.15;;;10.10;91.40;;;;;;6212037;22;20913;-80
